Main page
METAR-TAF:

METAR-TAF

Airports :

Sumburgh Airport

Sumburgh, Shetland, Scotland

latitude: 59-53N, longitude: 001-18W, elevation: 5 m

Current weather observation

The report was made 40 minutes ago, at 18:50 UTC
Wind 18 kt from the South/Southeast
Temperature 14°C
Humidity 77%
Pressure 1006 hPa
Visibility 10 km or more
no clouds below 1500 m and no cumulonimbus

METAR: EGPB 251850Z 16018KT CAVOK 14/10 Q1006

Time: 20:30 (19:30 UTC)

Forecast

The report was made 2 hours and 33 minutes ago, at 16:57 UTC
Forecast valid from 25 at 18 UTC to 26 at 03 UTC
Wind 20 kt from the South/Southeast with gusts up to 30 kt
Visibility 10 km or more
Few clouds at a height of 1000 ft
Becoming
from 25 at 21 UTC to 25 at 24 UTC
Wind 12 kt from the Southeast

TAF: EGPB 251657Z 2518/2603 16020G30KT 9999 FEW010 BECMG 2521/2524 14012KT

Weather observations and forecasts of more than 4000 airports (METAR and TAF reports).

The available stations are represented by yellow and red dots on the map.

Hover mouse over dot to see the name of the station.

Then click to see weather observations and forecasts.

To change the map : click on the green buttons with a black cross to zoom in, on the green button with a dash to zoom out, or on the green arrows for adjacent maps.


METAR-TAF: